createdAt,value
2018-11-02T00:02:18.622Z,6.90
2018-11-02T00:04:47.013Z,7.70
2018-11-02T00:07:15.504Z,7.10
2018-11-02T00:09:43.870Z,5.10
2018-11-02T00:12:12.375Z,4.73
2018-11-02T00:14:40.818Z,5.70
2018-11-02T00:17:09.410Z,5.27
2018-11-02T00:19:37.806Z,5.07
2018-11-02T00:22:06.683Z,6.30
2018-11-02T00:24:35.183Z,4.67
2018-11-02T00:27:03.590Z,4.53
2018-11-02T00:29:32.711Z,6.13
2018-11-02T00:32:01.192Z,5.03
2018-11-02T00:34:29.758Z,4.40
2018-11-02T00:36:58.179Z,4.77
2018-11-02T00:39:26.811Z,5.43
2018-11-02T00:41:55.545Z,5.80
2018-11-02T00:44:23.992Z,6.00
2018-11-02T00:46:52.387Z,4.40
2018-11-02T00:49:20.823Z,4.40
2018-11-02T00:51:49.417Z,3.83
2018-11-02T00:54:17.994Z,3.40
2018-11-02T00:56:46.392Z,4.10
2018-11-02T00:59:14.893Z,4.37
2018-11-02T01:01:43.536Z,3.97
2018-11-02T01:04:12.027Z,3.83
2018-11-02T01:06:40.399Z,5.90
2018-11-02T01:09:10.130Z,4.83
2018-11-02T01:11:38.688Z,4.07
2018-11-02T01:14:07.090Z,6.70
2018-11-02T01:16:35.661Z,4.10
2018-11-02T01:19:04.222Z,4.03
2018-11-02T01:21:32.725Z,4.50
2018-11-02T01:24:01.162Z,3.67
2018-11-02T01:26:29.585Z,5.37
2018-11-02T01:28:57.951Z,4.47
2018-11-02T01:31:26.452Z,3.77
2018-11-02T01:33:54.869Z,4.60
2018-11-02T01:36:23.279Z,4.40
2018-11-02T01:38:51.726Z,3.47
2018-11-02T01:41:20.099Z,3.10
2018-11-02T01:43:48.522Z,3.60
2018-11-02T01:46:17.047Z,3.63
2018-11-02T01:48:45.569Z,3.67
2018-11-02T01:51:14.038Z,3.80
2018-11-02T01:53:42.510Z,3.53
2018-11-02T01:56:10.939Z,5.50
2018-11-02T01:58:39.322Z,2.80
2018-11-02T02:01:07.785Z,3.90
2018-11-02T02:03:36.288Z,3.60
2018-11-02T02:06:05.051Z,4.03
2018-11-02T02:08:33.513Z,4.00
2018-11-02T02:11:02.007Z,4.70
2018-11-02T02:13:30.505Z,3.87
2018-11-02T02:15:58.958Z,2.80
2018-11-02T02:18:27.678Z,3.87
2018-11-02T02:20:56.189Z,4.23
2018-11-02T02:23:24.666Z,4.50
2018-11-02T02:25:53.159Z,4.73
2018-11-02T02:28:21.554Z,4.87
2018-11-02T02:30:49.896Z,4.83
2018-11-02T02:33:18.256Z,4.83
2018-11-02T02:35:46.810Z,4.60
2018-11-02T02:38:15.169Z,5.20
2018-11-02T02:40:43.573Z,6.53
2018-11-02T02:43:12.011Z,6.40
2018-11-02T02:45:40.427Z,6.13
2018-11-02T02:48:08.890Z,6.00
2018-11-02T02:50:37.504Z,5.87
2018-11-02T02:53:06.042Z,6.73
2018-11-02T02:55:34.461Z,5.93
2018-11-02T02:58:02.883Z,6.87
2018-11-02T03:00:31.266Z,5.40
2018-11-02T03:02:59.762Z,6.70
2018-11-02T03:05:28.229Z,6.20
2018-11-02T03:07:56.617Z,6.00
2018-11-02T03:10:25.045Z,6.53
2018-11-02T03:12:53.546Z,6.40
2018-11-02T03:15:21.946Z,7.03
2018-11-02T03:17:50.306Z,6.60
2018-11-02T03:20:18.866Z,8.00
2018-11-02T03:22:47.337Z,6.50
2018-11-02T03:25:15.756Z,7.53
2018-11-02T03:27:44.142Z,6.77
2018-11-02T03:30:12.993Z,7.30
2018-11-02T03:32:41.775Z,7.63
2018-11-02T03:35:10.559Z,6.77
2018-11-02T03:37:38.935Z,7.03
2018-11-02T03:40:08.745Z,6.43
2018-11-02T03:42:37.326Z,6.50
2018-11-02T03:45:06.195Z,6.83
2018-11-02T03:47:34.708Z,7.20
2018-11-02T03:50:03.109Z,6.07
2018-11-02T03:52:31.489Z,6.37
2018-11-02T03:54:59.843Z,6.70
2018-11-02T03:57:28.394Z,6.27
2018-11-02T03:59:57.002Z,7.00
2018-11-02T04:02:25.579Z,9.63
2018-11-02T04:04:53.935Z,6.40
2018-11-02T04:07:22.302Z,5.83
2018-11-02T04:09:50.785Z,7.00
2018-11-02T04:12:19.177Z,7.27
2018-11-02T04:14:47.633Z,6.57
2018-11-02T04:17:16.258Z,6.97
2018-11-02T04:19:44.635Z,6.70
2018-11-02T04:22:13.050Z,7.73
2018-11-02T04:24:41.554Z,6.80
2018-11-02T04:27:09.893Z,7.30
2018-11-02T04:29:38.320Z,7.60
2018-11-02T04:32:06.790Z,7.37
2018-11-02T04:34:35.239Z,7.70
2018-11-02T04:37:03.610Z,6.00
2018-11-02T04:39:32.046Z,7.40
2018-11-02T04:42:00.514Z,6.40
2018-11-02T04:44:29.709Z,8.47
2018-11-02T04:46:58.202Z,6.67
2018-11-02T04:49:26.684Z,7.00
2018-11-02T04:51:55.069Z,6.40
2018-11-02T04:54:23.575Z,7.00
2018-11-02T04:56:51.998Z,7.30
2018-11-02T04:59:20.338Z,6.20
2018-11-02T05:01:48.821Z,6.53
2018-11-02T05:04:17.239Z,6.03
2018-11-02T05:06:45.746Z,7.40
2018-11-02T05:09:14.130Z,6.53
2018-11-02T05:11:42.502Z,6.70
2018-11-02T05:14:10.921Z,7.17
2018-11-02T05:16:39.381Z,6.43
2018-11-02T05:19:07.871Z,6.13
2018-11-02T05:21:36.251Z,6.37
2018-11-02T05:24:04.923Z,6.70
2018-11-02T05:26:33.473Z,6.80
2018-11-02T05:29:01.928Z,6.90
2018-11-02T05:31:30.346Z,6.20
2018-11-02T05:33:58.742Z,6.20
2018-11-02T05:36:27.121Z,5.90
2018-11-02T05:38:55.542Z,7.20
2018-11-02T05:41:24.177Z,6.47
2018-11-02T05:43:52.571Z,5.50
2018-11-02T05:46:20.983Z,5.70
2018-11-02T05:48:49.536Z,6.73
2018-11-02T05:51:18.007Z,6.73
2018-11-02T05:53:46.385Z,5.87
2018-11-02T05:56:14.733Z,6.97
2018-11-02T05:58:43.206Z,6.23
2018-11-02T06:01:11.792Z,6.43
2018-11-02T06:03:40.257Z,6.37
2018-11-02T06:06:08.736Z,6.57
2018-11-02T06:08:37.177Z,6.57
2018-11-02T06:11:05.970Z,6.70
2018-11-02T06:13:34.395Z,5.67
2018-11-02T06:16:02.754Z,6.73
2018-11-02T06:18:31.157Z,5.70
2018-11-02T06:20:59.532Z,6.57
2018-11-02T06:23:28.000Z,6.83
2018-11-02T06:25:56.444Z,6.30
2018-11-02T06:28:24.796Z,6.17
2018-11-02T06:30:53.297Z,9.43
2018-11-02T06:33:21.750Z,8.50
2018-11-02T06:35:50.215Z,7.00
2018-11-02T06:38:18.576Z,6.37
2018-11-02T06:40:46.945Z,7.40
2018-11-02T06:43:15.433Z,6.33
2018-11-02T06:45:43.835Z,8.70
2018-11-02T06:48:12.399Z,7.53
2018-11-02T06:50:40.931Z,7.87
2018-11-02T06:53:09.275Z,8.20
2018-11-02T06:55:37.757Z,7.90
2018-11-02T06:58:06.236Z,8.17
2018-11-02T07:00:34.712Z,9.13
2018-11-02T07:03:03.046Z,7.70
2018-11-02T07:05:31.553Z,6.90
2018-11-02T07:08:00.256Z,7.50
2018-11-02T07:10:28.544Z,7.50
2018-11-02T07:12:57.070Z,6.77
2018-11-02T07:15:25.557Z,6.30
2018-11-02T07:17:53.946Z,7.67
2018-11-02T07:20:22.232Z,6.50
2018-11-02T07:22:50.529Z,5.70
2018-11-02T07:25:18.987Z,7.50
2018-11-02T07:27:47.242Z,7.23
2018-11-02T07:30:15.645Z,7.93
2018-11-02T07:32:44.016Z,7.50
2018-11-02T07:35:12.397Z,10.17
2018-11-02T07:37:40.732Z,8.60
2018-11-02T07:40:10.799Z,7.63
2018-11-02T07:42:39.499Z,9.23
2018-11-02T07:45:08.965Z,7.27
2018-11-02T07:47:37.405Z,6.80
2018-11-02T07:50:07.702Z,7.40
2018-11-02T07:52:36.078Z,6.30
2018-11-02T07:55:05.265Z,7.50
2018-11-02T07:57:33.775Z,7.60
2018-11-02T08:00:02.214Z,6.93
2018-11-02T08:02:30.580Z,7.33
2018-11-02T08:04:58.873Z,6.30
2018-11-02T08:07:27.307Z,8.47
2018-11-02T08:09:55.797Z,7.70
2018-11-02T08:12:24.110Z,8.30
2018-11-02T08:14:52.470Z,9.03
2018-11-02T08:17:20.790Z,10.27
2018-11-02T08:19:49.180Z,7.40
2018-11-02T08:22:17.663Z,7.13
2018-11-02T08:24:46.176Z,6.83
2018-11-02T08:27:14.516Z,7.70
2018-11-02T08:29:42.912Z,7.10
2018-11-02T08:32:11.360Z,6.90
2018-11-02T08:34:39.730Z,6.13
2018-11-02T08:37:08.222Z,6.93
2018-11-02T08:39:36.601Z,7.00
2018-11-02T08:42:05.512Z,5.20
2018-11-02T08:44:34.032Z,7.43
2018-11-02T08:47:02.583Z,5.47
2018-11-02T08:49:31.052Z,5.53
2018-11-02T08:51:59.458Z,4.50
2018-11-02T08:54:27.909Z,5.67
2018-11-02T08:56:56.301Z,5.80
2018-11-02T08:59:25.437Z,5.30
2018-11-02T09:01:53.811Z,10.20
2018-11-02T09:04:22.209Z,6.23
2018-11-02T09:06:50.554Z,5.27
2018-11-02T09:09:18.988Z,6.27
2018-11-02T09:11:47.490Z,7.33
2018-11-02T09:14:15.849Z,6.63
2018-11-02T09:16:44.222Z,6.57
2018-11-02T09:19:12.843Z,5.57
2018-11-02T09:21:41.363Z,4.67
2018-11-02T09:24:09.716Z,4.97
2018-11-02T09:26:38.100Z,4.60
2018-11-02T09:29:06.495Z,5.63
2018-11-02T09:31:34.891Z,4.93
2018-11-02T09:34:03.358Z,4.60
2018-11-02T09:36:31.885Z,4.67
2018-11-02T09:39:00.299Z,4.87
2018-11-02T09:41:28.847Z,4.57
2018-11-02T09:43:57.325Z,3.97
2018-11-02T09:46:25.705Z,6.07
2018-11-02T09:48:54.232Z,4.87
2018-11-02T09:51:22.705Z,5.60
2018-11-02T09:53:51.201Z,4.50
2018-11-02T09:56:19.634Z,4.40
2018-11-02T09:58:48.185Z,4.67
2018-11-02T10:01:16.801Z,5.00
2018-11-02T10:03:45.288Z,4.53
2018-11-02T10:06:13.717Z,4.07
2018-11-02T10:08:42.396Z,4.87
2018-11-02T10:11:10.976Z,3.93
2018-11-02T10:13:39.416Z,5.13
2018-11-02T10:16:08.416Z,5.20
2018-11-02T10:18:36.914Z,5.83
2018-11-02T10:21:05.609Z,7.50
2018-11-02T10:23:34.106Z,5.03
2018-11-02T10:26:02.618Z,5.23
2018-11-02T10:28:31.250Z,6.40
2018-11-02T10:30:59.789Z,6.70
2018-11-02T10:33:28.274Z,5.20
2018-11-02T10:35:56.964Z,4.30
2018-11-02T10:38:25.361Z,6.30
2018-11-02T10:40:55.925Z,5.70
2018-11-02T10:43:25.161Z,5.50
2018-11-02T10:45:57.053Z,6.07
2018-11-02T10:48:27.173Z,5.57
2018-11-02T10:50:55.675Z,6.07
2018-11-02T10:53:24.462Z,5.33
2018-11-02T10:55:53.065Z,5.63
2018-11-02T10:58:21.615Z,5.10
2018-11-02T11:00:55.435Z,4.40
2018-11-02T11:03:24.087Z,4.77
2018-11-02T11:05:52.892Z,5.70
2018-11-02T11:08:21.461Z,3.50
2018-11-02T11:10:49.939Z,4.17
2018-11-02T11:13:18.785Z,4.60
2018-11-02T11:15:47.070Z,4.22
2018-11-02T11:18:15.597Z,3.87
2018-11-02T11:20:43.997Z,4.10
2018-11-02T11:23:12.599Z,4.10
2018-11-02T11:25:41.046Z,3.90
2018-11-02T11:28:09.578Z,3.33
2018-11-02T11:30:38.087Z,3.30
2018-11-02T11:33:06.522Z,3.22
2018-11-02T11:35:34.906Z,3.10
2018-11-02T11:38:03.352Z,2.92
2018-11-02T11:40:31.811Z,3.90
2018-11-02T11:43:00.213Z,3.12
2018-11-02T11:45:28.718Z,3.87
2018-11-02T11:47:57.186Z,3.75
2018-11-02T11:50:25.651Z,3.25
2018-11-02T11:52:54.857Z,2.70
2018-11-02T11:55:23.379Z,2.60
2018-11-02T11:57:51.832Z,2.67
2018-11-02T12:00:21.613Z,3.33
2018-11-02T12:02:50.723Z,3.98
2018-11-02T12:05:20.410Z,3.17
2018-11-02T12:07:49.094Z,3.37
2018-11-02T12:10:20.084Z,2.30
2018-11-02T12:12:48.515Z,2.47
2018-11-02T12:15:18.235Z,2.95
2018-11-02T12:17:47.218Z,2.80
2018-11-02T12:20:21.019Z,3.02
2018-11-02T12:22:50.434Z,3.50
2018-11-02T12:25:19.037Z,2.98
2018-11-02T12:27:47.507Z,2.90
2018-11-02T12:30:17.233Z,3.70
2018-11-02T12:32:45.696Z,3.52
2018-11-02T12:35:15.319Z,4.00
2018-11-02T12:37:43.855Z,3.50
2018-11-02T12:40:15.786Z,3.33
2018-11-02T12:42:44.853Z,3.10
2018-11-02T12:45:14.678Z,3.10
2018-11-02T12:47:43.722Z,3.40
2018-11-02T12:50:15.508Z,3.10
2018-11-02T12:52:44.671Z,3.70
2018-11-02T12:55:13.856Z,3.67
2018-11-02T12:57:42.664Z,4.10
2018-11-02T13:00:14.026Z,3.70
2018-11-02T13:02:43.415Z,3.70
2018-11-02T13:05:11.882Z,3.65
2018-11-02T13:07:40.591Z,3.40
2018-11-02T13:10:10.512Z,3.50
2018-11-02T13:12:38.936Z,3.37
2018-11-02T13:15:09.503Z,3.90
2018-11-02T13:17:38.259Z,3.45
2018-11-02T13:20:07.370Z,3.77
2018-11-02T13:22:35.787Z,4.20
2018-11-02T13:25:04.785Z,3.90
2018-11-02T13:27:33.313Z,3.65
2018-11-02T13:30:02.013Z,3.60
2018-11-02T13:32:30.229Z,3.20
2018-11-02T13:34:58.674Z,3.90
2018-11-02T13:37:27.147Z,3.90
2018-11-02T13:39:55.556Z,3.50
2018-11-02T13:42:24.148Z,3.60
2018-11-02T13:44:52.664Z,2.92
2018-11-02T13:47:21.243Z,2.73
2018-11-02T13:49:49.759Z,3.80
2018-11-02T13:52:18.171Z,3.70
2018-11-02T13:54:46.662Z,3.67
2018-11-02T13:57:15.152Z,3.35
2018-11-02T13:59:43.685Z,3.75
2018-11-02T14:02:12.170Z,2.85
2018-11-02T14:04:40.605Z,3.17
2018-11-02T14:07:09.074Z,3.62
2018-11-02T14:09:37.626Z,3.10
2018-11-02T14:12:06.165Z,3.02
2018-11-02T14:14:34.623Z,2.62
2018-11-02T14:17:03.123Z,3.10
2018-11-02T14:19:31.580Z,3.20
2018-11-02T14:21:59.980Z,2.90
2018-11-02T14:24:28.415Z,3.05
2018-11-02T14:26:56.960Z,3.10
2018-11-02T14:29:25.439Z,2.70
2018-11-02T14:31:53.844Z,2.40
2018-11-02T14:34:22.306Z,2.53
2018-11-02T14:36:51.083Z,2.63
2018-11-02T14:39:19.502Z,2.77
2018-11-02T14:41:47.917Z,3.08
2018-11-02T14:44:16.391Z,2.77
2018-11-02T14:46:45.169Z,3.60
2018-11-02T14:49:13.483Z,3.55
2018-11-02T14:51:42.054Z,3.50
2018-11-02T14:54:10.546Z,3.90
2018-11-02T14:56:39.166Z,3.35
2018-11-02T14:59:07.617Z,4.53
2018-11-02T15:01:36.141Z,3.72
2018-11-02T15:04:05.138Z,3.20
2018-11-02T15:06:33.697Z,3.77
2018-11-02T15:09:02.287Z,3.35
2018-11-02T15:11:30.796Z,3.22
2018-11-02T15:13:59.313Z,3.35
2018-11-02T15:16:27.822Z,4.05
2018-11-02T15:18:56.318Z,4.28
2018-11-02T15:21:24.777Z,3.70
2018-11-02T15:23:53.295Z,3.87
2018-11-02T15:26:21.793Z,4.27
2018-11-02T15:28:50.232Z,5.30
2018-11-02T15:31:18.798Z,3.95
2018-11-02T15:33:47.367Z,4.13
2018-11-02T15:36:15.866Z,4.50
2018-11-02T15:38:44.365Z,4.70
2018-11-02T15:41:12.797Z,4.03
2018-11-02T15:43:41.293Z,4.85
2018-11-02T15:46:09.705Z,4.20
2018-11-02T15:48:38.152Z,4.22
2018-11-02T15:51:06.595Z,5.40
2018-11-02T15:53:35.062Z,4.80
2018-11-02T15:56:03.494Z,3.85
2018-11-02T15:58:32.073Z,4.50
2018-11-02T16:01:00.611Z,4.47
2018-11-02T16:03:29.270Z,4.60
2018-11-02T16:05:57.857Z,4.70
2018-11-02T16:08:26.276Z,4.80
2018-11-02T16:10:54.680Z,3.95
2018-11-02T16:13:23.139Z,4.97
2018-11-02T16:15:51.517Z,7.12
2018-11-02T16:18:20.010Z,5.53
2018-11-02T16:20:48.706Z,6.07
2018-11-02T16:23:17.131Z,9.48
2018-11-02T16:25:45.658Z,5.50
2018-11-02T16:28:14.212Z,5.70
2018-11-02T16:30:42.773Z,6.23
2018-11-02T16:33:11.211Z,5.67
2018-11-02T16:35:39.783Z,5.50
2018-11-02T16:38:08.266Z,5.42
2018-11-02T16:40:36.741Z,5.78
2018-11-02T16:43:05.384Z,6.15
2018-11-02T16:45:33.908Z,5.40
2018-11-02T16:48:02.595Z,5.90
2018-11-02T16:50:31.046Z,5.93
2018-11-02T16:52:59.382Z,5.85
2018-11-02T16:55:27.916Z,6.15
2018-11-02T16:57:56.526Z,5.60
2018-11-02T17:00:24.806Z,5.55
2018-11-02T17:02:53.323Z,6.25
2018-11-02T17:05:21.739Z,6.10
2018-11-02T17:07:50.283Z,6.30
2018-11-02T17:10:18.673Z,7.67
2018-11-02T17:12:47.095Z,6.80
2018-11-02T17:15:15.657Z,7.90
2018-11-02T17:17:44.279Z,8.15
2018-11-02T17:20:14.048Z,7.10
2018-11-02T17:22:42.678Z,7.67
2018-11-02T17:25:11.963Z,7.57
2018-11-02T17:27:40.850Z,7.00
2018-11-02T17:30:12.503Z,7.45
2018-11-02T17:32:41.294Z,7.40
2018-11-02T17:35:10.376Z,7.80
2018-11-02T17:37:38.873Z,7.03
2018-11-02T17:40:09.213Z,7.42
2018-11-02T17:42:37.748Z,7.00
2018-11-02T17:45:07.321Z,7.65
2018-11-02T17:47:36.765Z,8.95
2018-11-02T17:50:05.483Z,7.00
2018-11-02T17:52:33.925Z,7.67
2018-11-02T17:55:02.558Z,7.70
2018-11-02T17:57:31.186Z,8.70
2018-11-02T17:59:59.770Z,7.97
2018-11-02T18:02:28.239Z,10.40
2018-11-02T18:04:56.849Z,9.30
2018-11-02T18:07:25.396Z,8.93
2018-11-02T18:09:54.268Z,8.33
2018-11-02T18:12:22.869Z,9.45
2018-11-02T18:14:51.227Z,9.30
2018-11-02T18:17:19.746Z,8.85
2018-11-02T18:19:48.226Z,11.12
2018-11-02T18:22:16.726Z,8.90
2018-11-02T18:24:45.993Z,9.75
2018-11-02T18:27:14.436Z,9.23
2018-11-02T18:29:43.057Z,11.17
2018-11-02T18:32:11.533Z,12.03
2018-11-02T18:34:40.238Z,12.23
2018-11-02T18:37:08.839Z,10.55
2018-11-02T18:39:37.339Z,10.30
2018-11-02T18:42:06.181Z,12.73
2018-11-02T18:44:34.535Z,14.40
2018-11-02T18:47:03.214Z,12.90
2018-11-02T18:49:31.783Z,13.38
2018-11-02T18:52:00.388Z,13.35
2018-11-02T18:54:28.884Z,13.00
2018-11-02T18:56:57.383Z,12.53
2018-11-02T18:59:25.954Z,12.28
2018-11-02T19:01:54.433Z,12.68
2018-11-02T19:04:23.196Z,12.60
2018-11-02T19:06:51.802Z,12.10
2018-11-02T19:09:20.237Z,12.47
2018-11-02T19:11:48.759Z,12.80
2018-11-02T19:14:17.250Z,11.43
2018-11-02T19:16:45.780Z,12.95
2018-11-02T19:19:14.320Z,12.20
2018-11-02T19:21:44.008Z,14.20
2018-11-02T19:24:12.450Z,13.65
2018-11-02T19:26:41.153Z,13.35
2018-11-02T19:29:09.692Z,15.48
2018-11-02T19:31:38.320Z,12.15
2018-11-02T19:34:07.386Z,13.18
2018-11-02T19:36:35.897Z,11.80
2018-11-02T19:39:06.305Z,11.50
2018-11-02T19:41:34.770Z,12.13
2018-11-02T19:44:03.326Z,13.10
2018-11-02T19:46:31.900Z,12.40
2018-11-02T19:49:00.565Z,12.98
2018-11-02T19:51:29.003Z,12.80
2018-11-02T19:53:57.499Z,12.80
2018-11-02T19:56:26.036Z,13.08
2018-11-02T19:58:54.596Z,12.45
2018-11-02T20:01:23.210Z,12.50
2018-11-02T20:03:51.679Z,12.73
2018-11-02T20:06:20.373Z,12.68
2018-11-02T20:08:48.977Z,12.33
2018-11-02T20:11:17.506Z,12.47
2018-11-02T20:13:46.034Z,12.10
2018-11-02T20:16:14.533Z,13.57
2018-11-02T20:18:43.264Z,12.80
2018-11-02T20:21:11.844Z,11.85
2018-11-02T20:23:40.442Z,12.50
2018-11-02T20:26:09.021Z,11.80
2018-11-02T20:28:37.699Z,11.85
2018-11-02T20:31:06.269Z,11.60
2018-11-02T20:33:34.951Z,12.33
2018-11-02T20:36:03.448Z,12.45
2018-11-02T20:38:31.957Z,13.60
2018-11-02T20:41:00.533Z,12.55
2018-11-02T20:43:28.953Z,12.60
2018-11-02T20:45:57.461Z,12.90
2018-11-02T20:48:26.344Z,14.25
2018-11-02T20:50:55.556Z,14.25
2018-11-02T20:53:24.345Z,13.30
2018-11-02T20:55:52.988Z,13.73
2018-11-02T20:58:21.591Z,13.78
2018-11-02T21:00:50.245Z,13.90
2018-11-02T21:03:18.872Z,14.07
2018-11-02T21:05:47.742Z,13.83
2018-11-02T21:08:16.338Z,14.07
2018-11-02T21:10:44.835Z,13.60
2018-11-02T21:13:13.510Z,13.90
2018-11-02T21:15:42.080Z,14.10
2018-11-02T21:18:10.611Z,12.70
2018-11-02T21:20:39.264Z,11.85
2018-11-02T21:23:07.703Z,11.73
2018-11-02T21:25:36.292Z,13.60
2018-11-02T21:28:05.584Z,16.42
2018-11-02T21:30:34.061Z,17.37
2018-11-02T21:33:02.683Z,16.20
2018-11-02T21:35:31.267Z,15.38
2018-11-02T21:38:00.042Z,14.65
2018-11-02T21:40:28.562Z,14.70
2018-11-02T21:42:57.124Z,15.10
2018-11-02T21:45:25.735Z,14.93
2018-11-02T21:47:54.325Z,14.65
2018-11-02T21:50:23.002Z,14.23
2018-11-02T21:52:51.614Z,12.67
2018-11-02T21:55:20.080Z,13.80
2018-11-02T21:57:48.877Z,14.90
2018-11-02T22:00:18.995Z,12.83
2018-11-02T22:02:47.864Z,14.27
2018-11-02T22:05:16.517Z,14.13
2018-11-02T22:07:46.353Z,12.40
2018-11-02T22:10:15.259Z,15.10
2018-11-02T22:12:43.805Z,14.97
2018-11-02T22:15:12.307Z,11.87
2018-11-02T22:17:41.307Z,11.73
2018-11-02T22:20:11.359Z,11.50
2018-11-02T22:22:40.177Z,11.80
2018-11-02T22:25:09.494Z,12.40
2018-11-02T22:27:38.185Z,11.77
2018-11-02T22:30:08.796Z,11.90
2018-11-02T22:32:37.502Z,14.13
2018-11-02T22:35:06.227Z,12.70
2018-11-02T22:37:34.686Z,14.20
2018-11-02T22:40:03.295Z,14.03
2018-11-02T22:42:31.676Z,12.70
2018-11-02T22:45:00.207Z,11.93
2018-11-02T22:47:28.760Z,13.43
2018-11-02T22:49:57.230Z,13.90
2018-11-02T22:52:25.774Z,13.45
2018-11-02T22:54:54.442Z,13.55
2018-11-02T22:57:23.334Z,13.30
2018-11-02T22:59:51.808Z,12.60
2018-11-02T23:02:20.278Z,13.30
2018-11-02T23:07:17.241Z,13.90
2018-11-02T23:09:46.661Z,12.20
2018-11-02T23:12:15.909Z,12.77
2018-11-02T23:14:44.474Z,13.17
2018-11-02T23:17:13.505Z,12.60
2018-11-02T23:19:42.595Z,13.50
2018-11-02T23:22:11.660Z,12.13
2018-11-02T23:24:40.271Z,12.93
2018-11-02T23:27:09.088Z,12.67
2018-11-02T23:29:38.399Z,13.30
2018-11-02T23:32:07.490Z,12.77
2018-11-02T23:34:36.445Z,12.57
2018-11-02T23:37:05.783Z,12.00
2018-11-02T23:39:34.244Z,11.97
2018-11-02T23:42:03.473Z,12.40
2018-11-02T23:44:32.767Z,13.40
2018-11-02T23:47:01.916Z,11.60
2018-11-02T23:49:31.543Z,12.50
2018-11-02T23:52:00.890Z,11.73
2018-11-02T23:54:30.008Z,12.00
2018-11-02T23:56:59.106Z,13.70
2018-11-02T23:59:28.279Z,12.03
